Time;durP1;ratioP1;P1;durP2;ratioP2;P2;SDS_P1;SDS_P2;PMS_P1;PMS_P2;Temp;Humidity;BMP_temperature;BMP_pressure;BME280_temperature;BME280_humidity;BME280_pressure;Samples;Min_cycle;Max_cycle;Signal;HPM_P1;HPM_P2
2022/09/21 00:00:37;;;;;;;7.60;2.90;;;;;;;;;;4949434;28;20043;-70
2022/09/21 00:03:23;;;;;;;5.53;3.00;;;;;;;;;;4945368;28;20055;-71
2022/09/21 00:05:48;;;;;;;5.60;2.65;;;;;;;;;;4946994;28;20102;-69
2022/09/21 00:08:14;;;;;;;5.82;2.88;;;;;;;;;;4948162;28;20126;-69
2022/09/21 00:10:40;;;;;;;7.50;2.63;;;;;;;;;;4949255;28;20043;-71
2022/09/21 00:13:07;;;;;;;8.45;2.60;;;;;;;;;;4944403;28;20402;-71
2022/09/21 00:15:33;;;;;;;6.45;2.60;;;;;;;;;;4945643;28;20047;-69
2022/09/21 00:18:00;;;;;;;7.80;2.78;;;;;;;;;;4949821;28;20113;-71
2022/09/21 00:20:26;;;;;;;6.82;2.90;;;;;;;;;;4948909;28;20078;-68
2022/09/21 00:22:52;;;;;;;7.20;2.80;;;;;;;;;;4947637;28;20055;-70
2022/09/21 00:25:19;;;;;;;5.93;2.83;;;;;;;;;;4947726;28;20425;-71
2022/09/21 00:27:48;;;;;;;5.60;2.90;;;;;;;;;;4949866;29;20047;-72
2022/09/21 00:30:14;;;;;;;5.80;2.72;;;;;;;;;;4962638;28;20452;-71
2022/09/21 00:32:40;;;;;;;6.85;2.50;;;;;;;;;;4962826;28;20130;-71
2022/09/21 00:35:06;;;;;;;5.47;2.50;;;;;;;;;;4968121;28;20047;-69
2022/09/21 00:37:33;;;;;;;8.13;2.75;;;;;;;;;;4961176;28;20061;-68
2022/09/21 00:39:59;;;;;;;6.57;2.65;;;;;;;;;;4962170;28;20142;-70
2022/09/21 00:42:28;;;;;;;10.90;2.72;;;;;;;;;;4950135;28;20126;-69
2022/09/21 00:44:55;;;;;;;8.13;2.88;;;;;;;;;;4944990;28;20134;-69
2022/09/21 00:47:36;;;;;;;9.50;2.95;;;;;;;;;;4949176;28;20134;-71
2022/09/21 00:50:10;;;;;;;9.70;2.83;;;;;;;;;;4947690;28;20283;-71
2022/09/21 00:52:40;;;;;;;6.53;2.53;;;;;;;;;;4950278;28;20071;-70
2022/09/21 00:55:21;;;;;;;7.47;2.58;;;;;;;;;;4949864;28;20043;-70
2022/09/21 00:57:53;;;;;;;4.57;2.63;;;;;;;;;;4950869;28;20143;-69
2022/09/21 01:00:19;;;;;;;5.88;2.45;;;;;;;;;;4939172;28;20101;-70
2022/09/21 01:02:45;;;;;;;6.30;2.90;;;;;;;;;;4942176;28;20056;-70
2022/09/21 01:05:11;;;;;;;6.65;2.45;;;;;;;;;;4944478;28;20035;-71
2022/09/21 01:07:43;;;;;;;11.65;2.60;;;;;;;;;;4948946;28;20122;-70
2022/09/21 01:10:15;;;;;;;7.50;2.83;;;;;;;;;;4945744;28;20054;-72
2022/09/21 01:13:07;;;;;;;7.72;2.67;;;;;;;;;;4941478;28;20145;-69
2022/09/21 01:16:06;;;;;;;6.63;2.53;;;;;;;;;;4905357;29;20055;-71
2022/09/21 01:18:41;;;;;;;5.07;2.53;;;;;;;;;;4905262;29;20490;-70
2022/09/21 01:21:18;;;;;;;7.78;3.10;;;;;;;;;;4905937;29;20573;-69
2022/09/21 01:24:02;;;;;;;6.75;2.55;;;;;;;;;;4904369;29;20044;-70
2022/09/21 01:26:44;;;;;;;4.13;2.50;;;;;;;;;;4906926;29;20088;-70
2022/09/21 01:29:16;;;;;;;6.43;2.65;;;;;;;;;;4908286;29;20299;-70
2022/09/21 01:32:00;;;;;;;5.63;2.83;;;;;;;;;;4908773;29;20047;-69
2022/09/21 01:34:38;;;;;;;5.22;2.92;;;;;;;;;;4907204;29;20052;-71
2022/09/21 01:37:10;;;;;;;8.88;2.78;;;;;;;;;;4907376;29;20079;-70
2022/09/21 01:39:40;;;;;;;8.70;3.17;;;;;;;;;;4905569;29;20063;-70
2022/09/21 01:42:07;;;;;;;6.40;3.00;;;;;;;;;;4905537;29;20139;-69
2022/09/21 01:44:36;;;;;;;6.30;2.88;;;;;;;;;;4902765;29;20080;-69
2022/09/21 01:47:06;;;;;;;14.48;3.13;;;;;;;;;;4912594;29;20103;-70
2022/09/21 01:49:37;;;;;;;4.22;2.70;;;;;;;;;;4912111;29;20082;-68
2022/09/21 01:52:13;;;;;;;8.05;3.00;;;;;;;;;;4915045;29;20064;-75
2022/09/21 01:54:44;;;;;;;5.13;2.60;;;;;;;;;;4952916;28;20054;-70
2022/09/21 01:57:34;;;;;;;8.30;2.97;;;;;;;;;;4956083;28;20063;-70
2022/09/21 02:00:00;;;;;;;5.28;2.83;;;;;;;;;;4944648;28;20055;-69
2022/09/21 02:02:39;;;;;;;10.10;2.90;;;;;;;;;;4986292;28;20073;-70
2022/09/21 02:05:06;;;;;;;7.00;2.95;;;;;;;;;;4970040;28;20043;-70
2022/09/21 02:07:34;;;;;;;6.03;3.17;;;;;;;;;;4952262;28;20043;-69
2022/09/21 02:10:03;;;;;;;4.70;2.60;;;;;;;;;;4957120;28;20043;-70
2022/09/21 02:12:32;;;;;;;5.75;2.78;;;;;;;;;;4955982;28;20438;-70
2022/09/21 02:15:00;;;;;;;8.10;3.53;;;;;;;;;;4953156;28;20051;-70
2022/09/21 02:17:59;;;;;;;8.30;3.13;;;;;;;;;;4953869;28;20051;-68
2022/09/21 02:20:35;;;;;;;5.30;2.67;;;;;;;;;;4984445;28;20043;-69
2022/09/21 02:23:21;;;;;;;7.95;3.08;;;;;;;;;;4953387;28;20059;-68
2022/09/21 02:25:56;;;;;;;9.98;3.00;;;;;;;;;;4948006;28;20062;-70
2022/09/21 02:28:50;;;;;;;9.48;2.78;;;;;;;;;;4955107;28;20051;-70
2022/09/21 02:31:35;;;;;;;8.10;2.93;;;;;;;;;;4953524;28;20047;-69
2022/09/21 02:34:16;;;;;;;5.18;2.42;;;;;;;;;;4954612;28;20051;-70
2022/09/21 02:36:53;;;;;;;5.65;2.70;;;;;;;;;;4948095;28;20049;-70
2022/09/21 02:39:34;;;;;;;8.57;2.97;;;;;;;;;;4953614;28;20078;-69
2022/09/21 02:42:11;;;;;;;6.07;2.83;;;;;;;;;;4956089;28;20642;-70
2022/09/21 02:45:04;;;;;;;10.57;2.85;;;;;;;;;;4952158;28;20929;-70
2022/09/21 02:47:37;;;;;;;13.50;2.85;;;;;;;;;;4954837;28;20579;-70
2022/09/21 02:50:10;;;;;;;7.38;2.90;;;;;;;;;;4951840;28;20044;-69
2022/09/21 02:52:40;;;;;;;9.68;3.03;;;;;;;;;;4951418;28;20061;-69
2022/09/21 02:55:06;;;;;;;5.70;2.80;;;;;;;;;;4952239;28;20528;-70
2022/09/21 02:57:32;;;;;;;5.72;2.80;;;;;;;;;;4950716;28;20075;-69
2022/09/21 02:59:58;;;;;;;6.68;2.60;;;;;;;;;;4949957;29;20548;-68
2022/09/21 03:02:35;;;;;;;8.20;2.90;;;;;;;;;;4950117;29;20043;-69
2022/09/21 03:05:01;;;;;;;4.72;2.70;;;;;;;;;;4965653;28;20083;-68
2022/09/21 03:07:27;;;;;;;6.13;2.83;;;;;;;;;;4932555;29;20075;-70
2022/09/21 03:09:53;;;;;;;4.53;3.25;;;;;;;;;;4947149;28;20166;-71
2022/09/21 03:12:19;;;;;;;7.03;3.13;;;;;;;;;;4947388;28;20466;-70
2022/09/21 03:14:45;;;;;;;5.35;2.65;;;;;;;;;;4949390;28;20079;-69
2022/09/21 03:17:11;;;;;;;5.20;2.72;;;;;;;;;;4949157;29;20505;-70
2022/09/21 03:19:37;;;;;;;4.50;3.00;;;;;;;;;;4946937;29;20051;-68
2022/09/21 03:22:03;;;;;;;5.53;3.05;;;;;;;;;;4948137;28;20078;-69
2022/09/21 03:24:44;;;;;;;9.40;3.30;;;;;;;;;;4948713;28;20058;-69
2022/09/21 03:27:10;;;;;;;4.50;2.97;;;;;;;;;;4951054;28;20059;-69
2022/09/21 03:29:36;;;;;;;5.70;2.88;;;;;;;;;;4941508;29;20098;-69
2022/09/21 03:32:02;;;;;;;9.80;3.30;;;;;;;;;;4949807;28;20051;-70
2022/09/21 03:34:31;;;;;;;5.13;3.22;;;;;;;;;;4945601;28;20043;-71
2022/09/21 03:36:57;;;;;;;6.43;2.83;;;;;;;;;;4950465;28;20054;-70
2022/09/21 03:39:23;;;;;;;6.00;3.00;;;;;;;;;;4948683;28;20039;-70
2022/09/21 03:41:49;;;;;;;6.80;3.00;;;;;;;;;;4940255;28;20058;-70
2022/09/21 03:44:16;;;;;;;9.60;3.38;;;;;;;;;;4948046;28;20046;-70
2022/09/21 03:46:43;;;;;;;7.80;3.03;;;;;;;;;;4954467;28;20047;-69
2022/09/21 03:49:09;;;;;;;6.75;2.97;;;;;;;;;;4962204;28;20055;-70
2022/09/21 03:51:34;;;;;;;6.88;3.28;;;;;;;;;;4950418;28;20047;-71
2022/09/21 03:54:00;;;;;;;9.05;3.63;;;;;;;;;;4954744;28;20070;-69
2022/09/21 03:56:26;;;;;;;6.70;3.28;;;;;;;;;;4949850;28;20055;-71
2022/09/21 03:58:52;;;;;;;6.32;3.40;;;;;;;;;;4948765;28;20058;-70
2022/09/21 04:01:17;;;;;;;6.93;3.60;;;;;;;;;;4946440;28;20040;-68
2022/09/21 04:03:43;;;;;;;7.65;3.60;;;;;;;;;;4951320;28;20118;-70
2022/09/21 04:06:11;;;;;;;6.25;3.97;;;;;;;;;;4947675;28;20179;-69
2022/09/21 04:08:37;;;;;;;8.07;3.30;;;;;;;;;;4979565;28;20051;-70
2022/09/21 04:11:13;;;;;;;9.77;3.35;;;;;;;;;;4981495;28;20059;-69
2022/09/21 04:13:41;;;;;;;8.60;3.42;;;;;;;;;;4963420;28;20068;-70
2022/09/21 04:16:08;;;;;;;9.88;3.67;;;;;;;;;;4948174;28;20054;-71
2022/09/21 04:18:37;;;;;;;7.03;3.60;;;;;;;;;;4946371;28;20071;-71
2022/09/21 04:21:04;;;;;;;9.93;3.70;;;;;;;;;;4950196;28;20085;-69
2022/09/21 04:23:31;;;;;;;9.80;3.22;;;;;;;;;;4950795;28;20428;-71
2022/09/21 04:25:57;;;;;;;6.53;3.30;;;;;;;;;;4941218;28;20052;-72
2022/09/21 04:28:23;;;;;;;6.10;3.10;;;;;;;;;;4948022;28;20384;-71
2022/09/21 04:30:53;;;;;;;4.85;3.17;;;;;;;;;;4949197;28;20052;-71
2022/09/21 04:33:19;;;;;;;5.68;3.28;;;;;;;;;;4948540;28;20445;-70
2022/09/21 04:35:45;;;;;;;8.45;3.58;;;;;;;;;;4948348;28;20063;-71
2022/09/21 04:38:12;;;;;;;6.10;3.67;;;;;;;;;;4949459;28;20138;-70
2022/09/21 04:40:38;;;;;;;9.50;3.60;;;;;;;;;;4951076;28;20046;-70
2022/09/21 04:43:04;;;;;;;5.75;3.22;;;;;;;;;;4951197;28;20051;-70
2022/09/21 04:45:31;;;;;;;9.05;3.33;;;;;;;;;;4950430;28;20070;-70
2022/09/21 04:47:57;;;;;;;5.20;3.55;;;;;;;;;;4958204;28;20051;-70
2022/09/21 04:50:22;;;;;;;6.32;3.58;;;;;;;;;;4957768;28;20053;-70
2022/09/21 04:52:48;;;;;;;8.63;3.70;;;;;;;;;;4947793;28;20047;-70
2022/09/21 04:55:15;;;;;;;8.68;3.85;;;;;;;;;;4942795;28;20047;-71
2022/09/21 04:57:41;;;;;;;9.23;4.30;;;;;;;;;;4949949;28;20058;-71
2022/09/21 05:00:08;;;;;;;10.55;3.50;;;;;;;;;;4946342;28;20322;-69
2022/09/21 05:02:34;;;;;;;9.95;4.03;;;;;;;;;;4940452;28;20077;-69
2022/09/21 05:05:00;;;;;;;8.73;4.00;;;;;;;;;;4939581;28;20066;-70
2022/09/21 05:07:26;;;;;;;9.90;3.50;;;;;;;;;;4944535;28;20066;-69
2022/09/21 05:10:04;;;;;;;6.82;3.88;;;;;;;;;;4942608;28;20055;-71
2022/09/21 05:12:31;;;;;;;11.23;3.97;;;;;;;;;;4942888;28;20058;-70
2022/09/21 05:14:58;;;;;;;7.82;3.88;;;;;;;;;;4940364;28;20058;-71
2022/09/21 05:17:24;;;;;;;8.52;4.00;;;;;;;;;;4943536;28;20066;-70
2022/09/21 05:19:50;;;;;;;9.13;3.90;;;;;;;;;;4941644;28;20493;-71
2022/09/21 05:22:16;;;;;;;12.40;4.38;;;;;;;;;;4957953;28;20051;-72
2022/09/21 05:24:42;;;;;;;10.43;4.22;;;;;;;;;;4941643;28;20039;-72
2022/09/21 05:27:09;;;;;;;8.20;4.07;;;;;;;;;;4943470;28;20062;-71
2022/09/21 05:29:35;;;;;;;7.40;3.50;;;;;;;;;;4935877;28;20336;-70
2022/09/21 05:32:23;;;;;;;11.30;4.28;;;;;;;;;;4937214;28;20054;-72
2022/09/21 05:35:32;;;;;;;9.88;3.85;;;;;;;;;;4942546;28;20043;-70
2022/09/21 05:38:09;;;;;;;10.40;4.28;;;;;;;;;;4943162;28;20452;-70
2022/09/21 05:40:35;;;;;;;6.85;4.05;;;;;;;;;;4941178;28;20069;-72
2022/09/21 05:43:01;;;;;;;7.68;3.72;;;;;;;;;;4946787;28;20428;-72
2022/09/21 05:45:27;;;;;;;13.27;4.65;;;;;;;;;;4944924;28;20051;-73
2022/09/21 05:48:12;;;;;;;11.63;5.60;;;;;;;;;;4941716;28;20062;-71
2022/09/21 05:50:47;;;;;;;13.30;4.88;;;;;;;;;;4943444;28;20144;-71
2022/09/21 05:53:30;;;;;;;15.35;4.53;;;;;;;;;;4940727;28;20055;-71
2022/09/21 05:55:59;;;;;;;20.50;4.93;;;;;;;;;;4944788;28;20173;-70
2022/09/21 05:58:25;;;;;;;8.02;4.22;;;;;;;;;;4946591;28;20097;-71
2022/09/21 06:01:35;;;;;;;13.80;4.35;;;;;;;;;;4941980;28;20500;-70
2022/09/21 06:04:02;;;;;;;12.48;5.18;;;;;;;;;;4946875;28;20063;-70
2022/09/21 06:06:28;;;;;;;12.75;5.00;;;;;;;;;;4939816;28;20054;-72
2022/09/21 06:08:54;;;;;;;14.95;4.95;;;;;;;;;;4943703;28;20051;-71
2022/09/21 06:11:20;;;;;;;11.73;4.78;;;;;;;;;;4945196;28;20079;-75
2022/09/21 06:13:46;;;;;;;9.88;4.93;;;;;;;;;;4943405;28;20320;-69
2022/09/21 06:16:12;;;;;;;8.93;4.38;;;;;;;;;;4944733;28;20095;-69
2022/09/21 06:18:39;;;;;;;14.10;5.00;;;;;;;;;;4942262;28;20510;-71
2022/09/21 06:21:08;;;;;;;10.15;4.47;;;;;;;;;;4943307;28;20075;-71
2022/09/21 06:23:35;;;;;;;12.88;4.35;;;;;;;;;;4942734;28;20157;-68
2022/09/21 06:26:01;;;;;;;7.25;4.30;;;;;;;;;;4944401;28;20063;-69
2022/09/21 06:28:26;;;;;;;11.85;4.68;;;;;;;;;;4941878;28;20066;-71
2022/09/21 06:30:54;;;;;;;8.23;4.57;;;;;;;;;;4941176;28;20106;-69
2022/09/21 06:33:22;;;;;;;15.27;4.70;;;;;;;;;;4937479;28;20138;-71
2022/09/21 06:35:58;;;;;;;11.82;4.30;;;;;;;;;;4940889;28;20050;-70
2022/09/21 06:38:26;;;;;;;37.90;6.30;;;;;;;;;;4947866;28;20694;-70
2022/09/21 06:40:52;;;;;;;20.38;4.65;;;;;;;;;;4950634;28;20047;-69
2022/09/21 06:43:18;;;;;;;10.85;4.88;;;;;;;;;;4948181;28;20102;-70
2022/09/21 06:45:55;;;;;;;16.85;5.00;;;;;;;;;;4951538;28;20055;-71
2022/09/21 06:48:21;;;;;;;10.50;3.97;;;;;;;;;;4965730;28;20050;-68
2022/09/21 06:50:47;;;;;;;6.15;4.10;;;;;;;;;;4952130;28;20083;-71
2022/09/21 06:53:14;;;;;;;11.65;4.47;;;;;;;;;;4947580;28;20141;-71
2022/09/21 06:55:39;;;;;;;15.40;4.30;;;;;;;;;;4952282;28;20050;-71
2022/09/21 06:58:06;;;;;;;9.93;4.40;;;;;;;;;;4952354;28;20656;-70
2022/09/21 07:00:32;;;;;;;11.73;4.10;;;;;;;;;;4950827;28;20055;-70
2022/09/21 07:02:58;;;;;;;7.57;3.85;;;;;;;;;;4950877;28;20346;-69
2022/09/21 07:05:25;;;;;;;12.02;4.50;;;;;;;;;;4939266;28;20455;-71
2022/09/21 07:07:55;;;;;;;6.97;4.03;;;;;;;;;;4965908;28;20058;-70
2022/09/21 07:10:21;;;;;;;12.95;4.75;;;;;;;;;;4945704;28;20059;-71
2022/09/21 07:12:50;;;;;;;11.90;4.47;;;;;;;;;;4953504;28;20548;-71
2022/09/21 07:15:15;;;;;;;15.25;4.63;;;;;;;;;;4949619;28;20050;-70
2022/09/21 07:17:43;;;;;;;12.38;4.35;;;;;;;;;;4953431;28;20047;-72
2022/09/21 07:20:11;;;;;;;12.50;5.00;;;;;;;;;;4952488;28;20051;-72
2022/09/21 07:22:36;;;;;;;9.55;4.53;;;;;;;;;;4947239;28;20070;-72
2022/09/21 07:25:05;;;;;;;12.02;4.63;;;;;;;;;;4950452;28;20086;-67
2022/09/21 07:27:33;;;;;;;21.73;5.07;;;;;;;;;;4951176;28;20150;-67
2022/09/21 07:29:58;;;;;;;12.70;4.90;;;;;;;;;;4950847;28;20114;-66
2022/09/21 07:32:27;;;;;;;11.23;4.97;;;;;;;;;;4950063;28;20051;-67
2022/09/21 07:34:55;;;;;;;16.40;5.78;;;;;;;;;;4951641;28;20057;-66
2022/09/21 07:37:23;;;;;;;23.17;6.80;;;;;;;;;;4942460;28;20059;-65
2022/09/21 07:39:51;;;;;;;20.35;7.78;;;;;;;;;;4951160;28;20075;-69
2022/09/21 07:42:19;;;;;;;13.90;4.80;;;;;;;;;;4951057;28;20058;-70
2022/09/21 07:44:46;;;;;;;27.27;5.18;;;;;;;;;;4953487;28;20548;-68
2022/09/21 07:47:12;;;;;;;13.65;5.30;;;;;;;;;;4976128;28;20101;-68
2022/09/21 07:49:39;;;;;;;14.20;5.57;;;;;;;;;;4954366;28;20129;-65
2022/09/21 07:52:05;;;;;;;25.27;5.70;;;;;;;;;;4946511;28;20110;-66
2022/09/21 07:54:32;;;;;;;15.00;5.18;;;;;;;;;;4952121;28;20047;-68
2022/09/21 07:59:42;;;;;;;13.95;4.63;;;;;;;;;;4951002;28;20126;-69
2022/09/21 08:02:08;;;;;;;12.20;4.22;;;;;;;;;;4950645;28;20058;-66
2022/09/21 08:04:34;;;;;;;21.10;4.82;;;;;;;;;;4949991;28;20047;-68
2022/09/21 08:07:00;;;;;;;14.75;5.22;;;;;;;;;;4948649;28;20061;-68
2022/09/21 08:09:26;;;;;;;12.63;4.57;;;;;;;;;;4950995;28;20505;-67
2022/09/21 08:11:54;;;;;;;17.45;4.68;;;;;;;;;;4941689;28;20354;-66
2022/09/21 08:14:20;;;;;;;12.00;4.93;;;;;;;;;;4949297;28;20408;-70
2022/09/21 08:16:46;;;;;;;17.35;4.68;;;;;;;;;;4948156;28;20039;-67
2022/09/21 08:19:13;;;;;;;11.77;4.20;;;;;;;;;;4967629;28;20043;-69
2022/09/21 08:21:40;;;;;;;12.38;4.63;;;;;;;;;;4950638;28;20500;-69
2022/09/21 08:24:06;;;;;;;19.00;5.30;;;;;;;;;;4951516;28;20126;-68
2022/09/21 08:26:32;;;;;;;14.07;4.72;;;;;;;;;;4953806;28;20047;-69
2022/09/21 08:28:58;;;;;;;15.00;5.35;;;;;;;;;;4950668;28;20059;-66
2022/09/21 08:31:24;;;;;;;12.50;5.03;;;;;;;;;;4950584;28;20607;-67
2022/09/21 08:33:53;;;;;;;8.80;4.35;;;;;;;;;;4949832;28;20086;-67
2022/09/21 08:36:18;;;;;;;10.98;4.47;;;;;;;;;;4948056;28;20059;-67
2022/09/21 08:38:45;;;;;;;14.50;4.43;;;;;;;;;;4949405;28;20529;-67
2022/09/21 08:41:19;;;;;;;13.13;4.82;;;;;;;;;;4936439;28;20155;-71
2022/09/21 08:44:08;;;;;;;15.07;4.40;;;;;;;;;;4945628;28;20472;-67
2022/09/21 08:46:35;;;;;;;9.20;4.22;;;;;;;;;;4954242;28;20055;-69
2022/09/21 08:49:18;;;;;;;16.02;4.65;;;;;;;;;;4947377;28;20106;-69
2022/09/21 08:51:56;;;;;;;12.15;4.22;;;;;;;;;;4949581;28;20048;-68
2022/09/21 08:54:31;;;;;;;10.60;4.68;;;;;;;;;;4947370;28;20055;-68
2022/09/21 08:56:57;;;;;;;24.65;7.15;;;;;;;;;;4942659;28;20043;-67
2022/09/21 08:59:23;;;;;;;13.27;5.32;;;;;;;;;;4947949;28;20048;-67
2022/09/21 09:02:04;;;;;;;11.07;4.68;;;;;;;;;;4951566;28;20138;-69
2022/09/21 09:05:05;;;;;;;8.98;4.65;;;;;;;;;;4948905;28;20243;-68
2022/09/21 09:07:48;;;;;;;13.75;4.78;;;;;;;;;;4943422;28;20070;-68
2022/09/21 09:10:38;;;;;;;10.18;4.13;;;;;;;;;;4948336;28;20166;-67
2022/09/21 09:13:41;;;;;;;11.77;4.50;;;;;;;;;;4951173;28;20047;-68
2022/09/21 09:16:17;;;;;;;14.88;4.45;;;;;;;;;;4951955;28;20121;-67
2022/09/21 09:19:18;;;;;;;13.65;4.18;;;;;;;;;;4941083;28;20485;-70
2022/09/21 09:21:45;;;;;;;11.27;4.40;;;;;;;;;;4939559;28;20425;-69
2022/09/21 09:24:37;;;;;;;14.38;4.30;;;;;;;;;;4950900;28;20050;-68
2022/09/21 09:27:14;;;;;;;12.25;4.60;;;;;;;;;;4941072;28;20409;-68
2022/09/21 09:29:54;;;;;;;14.10;4.63;;;;;;;;;;4946677;28;20047;-68
2022/09/21 09:32:29;;;;;;;10.00;4.13;;;;;;;;;;4947198;28;20044;-71
2022/09/21 09:35:06;;;;;;;10.57;4.00;;;;;;;;;;4943635;28;20142;-68
2022/09/21 09:37:37;;;;;;;9.85;4.25;;;;;;;;;;4947426;28;20070;-70
2022/09/21 09:40:06;;;;;;;9.75;4.10;;;;;;;;;;4943420;28;20142;-68
2022/09/21 09:42:38;;;;;;;8.80;3.72;;;;;;;;;;4949697;28;20175;-71
2022/09/21 09:45:17;;;;;;;10.75;4.53;;;;;;;;;;4953991;28;20047;-67
2022/09/21 09:47:55;;;;;;;10.82;4.47;;;;;;;;;;4959301;28;20076;-70
2022/09/21 09:50:27;;;;;;;8.63;4.60;;;;;;;;;;4958172;28;20493;-69
2022/09/21 09:53:16;;;;;;;10.32;4.53;;;;;;;;;;4964470;28;20511;-69
2022/09/21 09:55:48;;;;;;;13.32;4.90;;;;;;;;;;4958367;28;20074;-68
2022/09/21 09:58:23;;;;;;;12.77;4.75;;;;;;;;;;4964987;28;20567;-67
2022/09/21 10:00:54;;;;;;;12.00;4.57;;;;;;;;;;4960886;28;20503;-67
2022/09/21 10:03:25;;;;;;;13.07;5.57;;;;;;;;;;4968681;28;20914;-71
2022/09/21 10:05:51;;;;;;;6.93;4.07;;;;;;;;;;4945722;28;20115;-70
2022/09/21 10:08:43;;;;;;;10.70;4.80;;;;;;;;;;4951695;28;20050;-69
2022/09/21 10:11:15;;;;;;;12.13;4.57;;;;;;;;;;4953260;28;20213;-69
2022/09/21 10:13:44;;;;;;;9.95;4.35;;;;;;;;;;4954213;28;20481;-70
2022/09/21 10:16:22;;;;;;;14.57;3.97;;;;;;;;;;4949596;28;20460;-70
2022/09/21 10:19:00;;;;;;;12.40;4.20;;;;;;;;;;4969302;28;20117;-69
2022/09/21 10:21:39;;;;;;;10.07;3.92;;;;;;;;;;4954034;28;20076;-69
2022/09/21 10:24:14;;;;;;;11.23;4.20;;;;;;;;;;4950415;28;20051;-70
2022/09/21 10:26:44;;;;;;;14.40;5.00;;;;;;;;;;4951090;28;20051;-72
2022/09/21 10:29:22;;;;;;;12.05;4.38;;;;;;;;;;4953104;28;20519;-70
2022/09/21 10:32:03;;;;;;;12.07;4.07;;;;;;;;;;4983755;28;20374;-70
2022/09/21 10:34:30;;;;;;;11.18;4.60;;;;;;;;;;4952099;28;20186;-69
2022/09/21 10:36:59;;;;;;;16.88;4.15;;;;;;;;;;4951934;28;20413;-69
2022/09/21 10:39:32;;;;;;;9.07;4.18;;;;;;;;;;4949661;28;20714;-70
2022/09/21 10:42:10;;;;;;;6.93;3.97;;;;;;;;;;4954218;28;20130;-69
2022/09/21 10:44:40;;;;;;;10.32;4.07;;;;;;;;;;4955059;28;20098;-69
2022/09/21 10:47:30;;;;;;;13.98;4.18;;;;;;;;;;4962207;28;20434;-67
2022/09/21 10:49:59;;;;;;;11.40;4.20;;;;;;;;;;4952922;28;20138;-70
2022/09/21 10:52:33;;;;;;;11.20;4.32;;;;;;;;;;4949172;28;20047;-71
2022/09/21 10:54:59;;;;;;;11.10;4.18;;;;;;;;;;4952733;28;20054;-67
2022/09/21 10:57:28;;;;;;;9.68;4.40;;;;;;;;;;4952707;28;20047;-70
2022/09/21 10:59:56;;;;;;;10.35;3.72;;;;;;;;;;4951277;28;20055;-69
2022/09/21 11:02:31;;;;;;;13.60;4.28;;;;;;;;;;4952800;28;20039;-71
2022/09/21 11:05:03;;;;;;;13.95;4.10;;;;;;;;;;4951936;28;20130;-66
2022/09/21 11:07:35;;;;;;;14.75;4.32;;;;;;;;;;4946853;28;20084;-69
2022/09/21 11:10:25;;;;;;;11.75;4.35;;;;;;;;;;4946821;28;20047;-71
2022/09/21 11:12:51;;;;;;;7.22;3.83;;;;;;;;;;4982968;28;20121;-69
2022/09/21 11:15:20;;;;;;;7.97;4.20;;;;;;;;;;4951503;28;20049;-68
2022/09/21 11:18:01;;;;;;;11.50;4.15;;;;;;;;;;4951041;28;20043;-70
2022/09/21 11:20:42;;;;;;;12.98;3.90;;;;;;;;;;4955250;28;20065;-69
2022/09/21 11:23:30;;;;;;;9.07;3.80;;;;;;;;;;4951323;28;20109;-71
2022/09/21 11:26:14;;;;;;;8.75;3.67;;;;;;;;;;4941651;28;20051;-70
2022/09/21 11:28:49;;;;;;;7.57;3.70;;;;;;;;;;4951937;28;20047;-70
2022/09/21 11:31:30;;;;;;;10.55;3.08;;;;;;;;;;4952105;28;20047;-70
2022/09/21 11:34:08;;;;;;;6.15;2.90;;;;;;;;;;4951296;28;20111;-71
2022/09/21 11:37:08;;;;;;;7.95;3.30;;;;;;;;;;4948694;28;21480;-69
2022/09/21 11:39:49;;;;;;;6.68;3.30;;;;;;;;;;4948224;28;20054;-74
2022/09/21 11:42:47;;;;;;;9.98;3.40;;;;;;;;;;4944502;28;20146;-67
2022/09/21 11:45:44;;;;;;;8.48;4.22;;;;;;;;;;4944642;28;20047;-70
2022/09/21 11:48:30;;;;;;;7.07;3.65;;;;;;;;;;4961502;28;20043;-70
2022/09/21 11:51:36;;;;;;;9.18;3.50;;;;;;;;;;4953676;28;20059;-72
2022/09/21 11:54:49;;;;;;;9.73;3.70;;;;;;;;;;4961143;28;20061;-68
2022/09/21 11:57:23;;;;;;;8.80;3.40;;;;;;;;;;4946544;28;20057;-68
2022/09/21 11:59:59;;;;;;;6.25;2.88;;;;;;;;;;4949683;28;20074;-71
2022/09/21 12:02:40;;;;;;;7.65;2.90;;;;;;;;;;4962281;28;20039;-68
2022/09/21 12:05:20;;;;;;;7.40;4.10;;;;;;;;;;4949550;28;20448;-69
2022/09/21 12:07:49;;;;;;;7.43;3.38;;;;;;;;;;4944915;28;20051;-69
2022/09/21 12:10:35;;;;;;;7.32;3.70;;;;;;;;;;4944931;28;20043;-67
2022/09/21 12:13:30;;;;;;;13.30;3.38;;;;;;;;;;4949342;28;20086;-68
2022/09/21 12:16:36;;;;;;;7.75;3.78;;;;;;;;;;4952640;28;20059;-72
2022/09/21 12:19:16;;;;;;;8.15;3.38;;;;;;;;;;4951979;28;20047;-72
2022/09/21 12:21:46;;;;;;;9.00;4.80;;;;;;;;;;4944965;28;20054;-70
2022/09/21 12:24:27;;;;;;;10.13;3.40;;;;;;;;;;4943691;28;20059;-70
2022/09/21 12:27:11;;;;;;;9.35;3.75;;;;;;;;;;4969478;28;20081;-72
2022/09/21 12:29:46;;;;;;;9.90;3.78;;;;;;;;;;4964826;28;20448;-70
2022/09/21 12:32:27;;;;;;;5.68;3.40;;;;;;;;;;4964245;28;20068;-70
2022/09/21 12:35:01;;;;;;;8.85;3.38;;;;;;;;;;4964262;28;20062;-73
2022/09/21 12:37:30;;;;;;;7.03;3.33;;;;;;;;;;4963667;28;20051;-69
2022/09/21 12:40:02;;;;;;;8.23;3.08;;;;;;;;;;4963938;28;20047;-70
2022/09/21 12:43:00;;;;;;;6.90;3.00;;;;;;;;;;4965048;28;20058;-72
2022/09/21 12:45:31;;;;;;;7.82;3.35;;;;;;;;;;4955186;28;20047;-71
2022/09/21 12:48:18;;;;;;;7.82;3.33;;;;;;;;;;4952786;28;20047;-73
2022/09/21 12:51:11;;;;;;;10.40;3.45;;;;;;;;;;4962121;28;20047;-71
2022/09/21 12:53:43;;;;;;;7.32;3.00;;;;;;;;;;4948899;28;20485;-72
2022/09/21 12:56:14;;;;;;;7.68;3.00;;;;;;;;;;4941280;28;20126;-73
2022/09/21 12:59:26;;;;;;;9.48;3.03;;;;;;;;;;4963135;28;20074;-70
2022/09/21 13:02:32;;;;;;;8.25;3.15;;;;;;;;;;4948881;28;20434;-73
2022/09/21 13:05:10;;;;;;;6.85;3.17;;;;;;;;;;4956737;28;20138;-74
2022/09/21 13:08:06;;;;;;;5.32;2.70;;;;;;;;;;4947264;28;20543;-71
2022/09/21 13:10:44;;;;;;;6.18;2.92;;;;;;;;;;4952735;28;20060;-73
2022/09/21 13:13:29;;;;;;;7.30;2.83;;;;;;;;;;4946541;28;20069;-72
2022/09/21 13:15:58;;;;;;;8.35;2.85;;;;;;;;;;4947586;28;20428;-72
2022/09/21 13:18:33;;;;;;;5.05;2.80;;;;;;;;;;4945186;28;20043;-70
2022/09/21 13:21:21;;;;;;;9.75;2.67;;;;;;;;;;4946219;29;20052;-70
2022/09/21 13:24:00;;;;;;;8.88;2.63;;;;;;;;;;4930837;28;20047;-72
2022/09/21 13:26:39;;;;;;;8.52;2.53;;;;;;;;;;4946955;28;20051;-68
2022/09/21 13:29:25;;;;;;;5.72;3.00;;;;;;;;;;4942524;28;20054;-73
2022/09/21 13:31:58;;;;;;;10.40;2.92;;;;;;;;;;4948644;28;20062;-71
2022/09/21 13:34:23;;;;;;;9.00;2.70;;;;;;;;;;4947843;28;20040;-69
2022/09/21 13:37:12;;;;;;;8.68;3.20;;;;;;;;;;4944469;28;20067;-70
2022/09/21 13:40:10;;;;;;;7.72;2.75;;;;;;;;;;4948311;28;20047;-67
2022/09/21 13:42:37;;;;;;;7.32;3.03;;;;;;;;;;4948067;28;20054;-72
2022/09/21 13:45:18;;;;;;;12.20;3.22;;;;;;;;;;4947628;28;20043;-70
2022/09/21 13:47:53;;;;;;;7.50;3.53;;;;;;;;;;4963110;28;20130;-67
2022/09/21 13:50:30;;;;;;;5.50;2.70;;;;;;;;;;4948189;28;20114;-70
2022/09/21 13:53:06;;;;;;;7.25;2.78;;;;;;;;;;4949075;28;20047;-71
2022/09/21 13:55:35;;;;;;;6.80;2.85;;;;;;;;;;4950682;28;20110;-70
2022/09/21 13:58:05;;;;;;;5.80;2.60;;;;;;;;;;4959343;28;20051;-70
2022/09/21 14:00:40;;;;;;;7.35;2.50;;;;;;;;;;4958039;28;20054;-67
2022/09/21 14:03:22;;;;;;;6.22;2.70;;;;;;;;;;4954503;28;20098;-68
2022/09/21 14:05:51;;;;;;;8.27;2.65;;;;;;;;;;4949599;28;20052;-69
2022/09/21 14:08:27;;;;;;;4.05;2.60;;;;;;;;;;4952479;28;20055;-69
2022/09/21 14:10:59;;;;;;;6.15;2.60;;;;;;;;;;4950635;28;20043;-70
2022/09/21 14:14:10;;;;;;;15.75;3.10;;;;;;;;;;4952283;28;20059;-70
2022/09/21 14:16:40;;;;;;;5.63;2.70;;;;;;;;;;4927054;29;20181;-71
2022/09/21 14:19:18;;;;;;;7.63;2.60;;;;;;;;;;4922761;29;20050;-71
2022/09/21 14:22:02;;;;;;;6.95;2.58;;;;;;;;;;4926520;29;20043;-72
2022/09/21 14:24:42;;;;;;;12.65;2.67;;;;;;;;;;4926231;29;20309;-69
2022/09/21 14:27:14;;;;;;;8.38;2.70;;;;;;;;;;4925675;29;20040;-70
2022/09/21 14:29:52;;;;;;;5.22;2.60;;;;;;;;;;4926218;29;20119;-70
2022/09/21 14:32:24;;;;;;;9.68;3.85;;;;;;;;;;4926375;29;20055;-76
2022/09/21 14:34:55;;;;;;;7.70;2.80;;;;;;;;;;4925821;29;20048;-72
2022/09/21 14:37:33;;;;;;;6.80;2.55;;;;;;;;;;4927405;29;20054;-73
2022/09/21 14:40:25;;;;;;;8.70;2.50;;;;;;;;;;4911734;29;20129;-70
2022/09/21 14:42:57;;;;;;;9.75;2.40;;;;;;;;;;4928294;29;20428;-70
2022/09/21 14:45:44;;;;;;;3.42;2.03;;;;;;;;;;4927764;29;20052;-72
2022/09/21 14:48:42;;;;;;;5.07;2.13;;;;;;;;;;4945662;29;20050;-70
2022/09/21 14:51:18;;;;;;;5.70;2.30;;;;;;;;;;4914645;28;20082;-71
2022/09/21 14:53:56;;;;;;;5.80;2.33;;;;;;;;;;4950326;28;20050;-69
2022/09/21 14:56:43;;;;;;;5.38;2.20;;;;;;;;;;4949763;28;20044;-71
2022/09/21 14:59:30;;;;;;;5.45;2.20;;;;;;;;;;4949063;28;20429;-72
2022/09/21 15:02:01;;;;;;;7.95;2.10;;;;;;;;;;4950226;28;20054;-71
2022/09/21 15:05:19;;;;;;;6.72;2.30;;;;;;;;;;4950006;28;20109;-72
2022/09/21 15:11:01;;;;;;;6.60;2.25;;;;;;;;;;4938610;28;20067;-73
2022/09/21 15:13:58;;;;;;;5.28;2.15;;;;;;;;;;4941844;28;20091;-73
2022/09/21 15:16:34;;;;;;;6.15;2.30;;;;;;;;;;4951725;28;20066;-68
2022/09/21 15:19:22;;;;;;;4.97;1.90;;;;;;;;;;4965236;28;20055;-71
2022/09/21 15:21:53;;;;;;;4.80;2.00;;;;;;;;;;4950361;28;20046;-70
2022/09/21 15:24:25;;;;;;;10.10;2.17;;;;;;;;;;4953074;28;20055;-72